createdAt,value
2023-05-10T00:01:23.467Z,4.10
2023-05-10T00:04:50.675Z,4.00
2023-05-10T00:08:17.626Z,4.10
2023-05-10T00:11:45.073Z,3.60
2023-05-10T00:15:16.089Z,4.00
2023-05-10T00:18:43.334Z,4.20
2023-05-10T00:22:10.250Z,4.40
2023-05-10T00:25:37.206Z,4.10
2023-05-10T00:29:04.582Z,4.40
2023-05-10T00:32:32.306Z,3.70
2023-05-10T00:36:00.874Z,4.10
2023-05-10T00:39:30.047Z,4.10
2023-05-10T00:43:02.433Z,4.00
2023-05-10T00:46:32.424Z,4.30
2023-05-10T00:49:59.395Z,4.40
2023-05-10T00:53:27.348Z,4.60
2023-05-10T00:56:54.232Z,4.40
2023-05-10T01:00:21.873Z,4.40
2023-05-10T01:03:49.341Z,4.50
2023-05-10T01:07:16.931Z,3.90
2023-05-10T01:10:44.372Z,4.10
2023-05-10T01:14:12.079Z,4.20
2023-05-10T01:17:40.988Z,4.00
2023-05-10T01:21:20.947Z,4.60
2023-05-10T01:25:22.924Z,4.30
2023-05-10T01:29:21.666Z,4.40
2023-05-10T01:32:56.509Z,4.20
2023-05-10T01:36:32.857Z,4.40
2023-05-10T01:40:10.633Z,4.50
2023-05-10T01:43:45.912Z,4.90
2023-05-10T01:47:16.739Z,4.50
2023-05-10T01:50:46.191Z,4.20
2023-05-10T01:54:16.168Z,4.20
2023-05-10T01:57:46.091Z,4.20
2023-05-10T02:01:14.951Z,4.20
2023-05-10T02:04:43.448Z,4.90
2023-05-10T02:08:12.143Z,3.80
2023-05-10T02:11:41.674Z,3.80
2023-05-10T02:15:13.077Z,4.50
2023-05-10T02:18:43.297Z,3.80
2023-05-10T02:22:12.725Z,4.20
2023-05-10T02:25:41.067Z,4.30
2023-05-10T02:29:09.778Z,3.80
2023-05-10T02:32:38.137Z,4.00
2023-05-10T02:36:06.664Z,3.90
2023-05-10T02:39:35.805Z,4.30
2023-05-10T02:43:07.272Z,4.40
2023-05-10T02:46:34.433Z,4.70
2023-05-10T02:50:02.647Z,4.10
2023-05-10T02:53:37.622Z,4.00
2023-05-10T02:57:07.172Z,4.10
2023-05-10T03:00:34.080Z,4.10
2023-05-10T03:04:00.772Z,4.50
2023-05-10T03:07:29.056Z,3.80
2023-05-10T03:11:07.891Z,4.60
2023-05-10T03:14:46.417Z,4.30
2023-05-10T03:18:17.733Z,4.40
2023-05-10T03:21:49.856Z,4.70
2023-05-10T03:25:19.245Z,4.00
2023-05-10T03:28:48.238Z,4.30
2023-05-10T03:32:15.309Z,4.20
2023-05-10T03:35:42.722Z,4.30
2023-05-10T03:39:10.275Z,4.30
2023-05-10T03:42:37.743Z,4.60
2023-05-10T03:46:05.684Z,4.50
2023-05-10T03:49:32.412Z,4.20
2023-05-10T03:52:59.635Z,4.10
2023-05-10T03:56:27.451Z,3.90
2023-05-10T03:59:54.889Z,4.20
2023-05-10T04:03:22.710Z,4.00
2023-05-10T04:06:49.582Z,3.80
2023-05-10T04:10:17.778Z,4.40
2023-05-10T04:13:45.324Z,4.90
2023-05-10T04:17:12.264Z,3.90
2023-05-10T04:20:39.037Z,4.50
2023-05-10T04:24:06.225Z,4.40
2023-05-10T04:27:33.660Z,4.30
2023-05-10T04:31:06.456Z,4.30
2023-05-10T04:34:35.424Z,4.20
2023-05-10T04:38:02.832Z,4.30
2023-05-10T04:41:29.968Z,4.20
2023-05-10T04:44:57.154Z,4.80
2023-05-10T04:48:23.819Z,4.20
2023-05-10T04:51:50.555Z,4.30
2023-05-10T04:55:17.731Z,4.10
2023-05-10T04:58:45.713Z,4.00
2023-05-10T05:02:13.006Z,4.70
2023-05-10T05:05:40.924Z,4.40
2023-05-10T05:09:08.098Z,4.20
2023-05-10T05:12:35.864Z,3.50
2023-05-10T05:16:04.649Z,3.60
2023-05-10T05:19:33.360Z,4.50
2023-05-10T05:23:00.291Z,4.10
2023-05-10T05:26:27.102Z,4.40
2023-05-10T05:29:55.112Z,4.30
2023-05-10T05:33:22.482Z,4.00
2023-05-10T05:36:50.222Z,4.20
2023-05-10T05:40:18.381Z,4.80
2023-05-10T05:43:45.957Z,4.20
2023-05-10T05:47:15.603Z,4.50
2023-05-10T05:50:42.920Z,3.70
2023-05-10T05:54:09.945Z,4.00
2023-05-10T05:57:41.077Z,3.60
2023-05-10T06:01:08.893Z,3.60
2023-05-10T06:04:36.633Z,3.80
2023-05-10T06:08:03.602Z,3.50
2023-05-10T06:11:33.327Z,3.10
2023-05-10T06:15:00.258Z,3.30
2023-05-10T06:18:28.324Z,3.10
2023-05-10T06:21:55.163Z,3.90
2023-05-10T06:25:22.534Z,3.40
2023-05-10T06:28:50.219Z,3.60
2023-05-10T06:32:18.457Z,3.30
2023-05-10T06:35:44.874Z,3.00
2023-05-10T06:39:12.914Z,2.90
2023-05-10T06:42:39.802Z,2.70
2023-05-10T06:46:06.876Z,3.90
2023-05-10T06:49:34.192Z,2.50
2023-05-10T06:53:01.256Z,2.80
2023-05-10T06:56:29.684Z,2.90
2023-05-10T07:00:00.588Z,6.00
2023-05-10T07:03:28.664Z,2.80
2023-05-10T07:06:56.033Z,3.00
2023-05-10T07:10:23.181Z,2.30
2023-05-10T07:13:50.259Z,3.00
2023-05-10T07:17:16.977Z,2.70
2023-05-10T07:20:43.902Z,2.50
2023-05-10T07:24:14.682Z,2.60
2023-05-10T07:27:41.703Z,3.10
2023-05-10T07:31:08.559Z,2.40
2023-05-10T07:34:35.228Z,2.90
2023-05-10T07:38:02.399Z,3.80
2023-05-10T07:41:29.230Z,2.70
2023-05-10T07:44:56.163Z,3.30
2023-05-10T07:48:22.746Z,2.70
2023-05-10T07:51:51.575Z,2.90
2023-05-10T07:55:18.328Z,2.30
2023-05-10T07:58:45.399Z,2.80
2023-05-10T08:02:12.603Z,2.70
2023-05-10T08:05:39.519Z,2.60
2023-05-10T08:09:06.327Z,2.40
2023-05-10T08:12:33.436Z,4.70
2023-05-10T08:16:00.659Z,2.60
2023-05-10T08:19:28.756Z,2.60
2023-05-10T08:22:56.381Z,2.90
2023-05-10T08:26:23.369Z,2.40
2023-05-10T08:29:50.757Z,2.00
2023-05-10T08:33:17.668Z,3.30
2023-05-10T08:36:45.279Z,2.60
2023-05-10T08:40:14.584Z,1.90
2023-05-10T08:43:42.741Z,3.00
2023-05-10T08:47:11.617Z,1.70
2023-05-10T08:50:40.664Z,2.30
2023-05-10T08:54:08.104Z,2.30
2023-05-10T08:57:36.014Z,2.50
2023-05-10T09:01:03.426Z,2.50
2023-05-10T09:04:30.985Z,3.20
2023-05-10T09:07:57.930Z,3.00
2023-05-10T09:11:26.346Z,2.30
2023-05-10T09:14:55.061Z,2.20
2023-05-10T09:18:22.558Z,2.20
2023-05-10T09:21:49.840Z,3.10
2023-05-10T09:25:19.398Z,3.30
2023-05-10T09:28:57.323Z,2.10
2023-05-10T09:32:24.237Z,2.40
2023-05-10T09:35:54.102Z,2.30
2023-05-10T09:39:21.212Z,2.30
2023-05-10T09:42:57.045Z,2.20
2023-05-10T09:46:24.209Z,2.90
2023-05-10T09:49:57.366Z,2.30
2023-05-10T09:53:24.242Z,2.30
2023-05-10T09:56:50.889Z,2.60
2023-05-10T10:00:21.877Z,2.30
2023-05-10T10:03:49.308Z,3.20
2023-05-10T10:07:16.290Z,2.20
2023-05-10T10:10:46.490Z,1.90
2023-05-10T10:14:14.158Z,1.90
2023-05-10T10:17:42.379Z,2.10
2023-05-10T10:21:10.015Z,2.40
2023-05-10T10:24:37.426Z,1.90
2023-05-10T10:28:19.252Z,2.10
2023-05-10T10:31:54.942Z,2.40
2023-05-10T10:35:21.746Z,2.30
2023-05-10T10:39:05.239Z,2.20
2023-05-10T10:42:51.053Z,2.20
2023-05-10T10:46:19.431Z,2.10
2023-05-10T10:49:53.864Z,2.40
2023-05-10T10:53:21.212Z,2.30
2023-05-10T10:57:15.896Z,2.50
2023-05-10T11:00:45.835Z,2.60
2023-05-10T11:04:26.822Z,2.40
2023-05-10T11:08:01.530Z,2.20
2023-05-10T11:11:28.191Z,2.00
2023-05-10T11:14:59.501Z,2.40
2023-05-10T11:18:30.717Z,2.20
2023-05-10T11:22:18.356Z,2.20
2023-05-10T11:25:47.924Z,2.70
2023-05-10T11:29:15.042Z,2.60
2023-05-10T11:32:44.257Z,2.50
2023-05-10T11:36:15.157Z,2.90
2023-05-10T11:39:48.585Z,2.70
2023-05-10T11:43:15.750Z,2.20
2023-05-10T11:46:42.878Z,2.60
2023-05-10T11:50:11.174Z,2.40
2023-05-10T11:53:37.923Z,2.10
2023-05-10T11:57:06.092Z,2.70
2023-05-10T12:00:34.280Z,2.10
2023-05-10T12:04:03.089Z,2.20
2023-05-10T12:07:29.993Z,2.20
2023-05-10T12:11:07.292Z,2.00
2023-05-10T12:14:38.158Z,1.70
2023-05-10T12:18:06.674Z,1.90
2023-05-10T12:21:33.869Z,2.30
2023-05-10T12:25:03.285Z,1.70
2023-05-10T12:28:34.621Z,4.60
2023-05-10T12:32:04.352Z,2.10
2023-05-10T12:35:34.491Z,2.40
2023-05-10T12:39:07.226Z,1.80
2023-05-10T12:46:00.714Z,1.90
2023-05-10T12:49:27.565Z,2.20
2023-05-10T12:52:54.568Z,1.70
2023-05-10T12:56:21.596Z,2.10
2023-05-10T12:59:48.692Z,2.00
2023-05-10T13:03:16.902Z,2.40
2023-05-10T13:06:43.929Z,4.80
2023-05-10T13:10:12.557Z,1.90
2023-05-10T13:13:39.676Z,1.70
2023-05-10T13:17:06.514Z,1.70
2023-05-10T13:20:33.920Z,2.00
2023-05-10T13:24:01.458Z,2.10
2023-05-10T13:27:28.653Z,1.80
2023-05-10T13:30:56.872Z,1.90
2023-05-10T13:34:24.229Z,2.10
2023-05-10T13:37:50.950Z,3.60
2023-05-10T13:41:18.369Z,1.70
2023-05-10T13:44:45.889Z,2.00
2023-05-10T13:48:15.445Z,1.60
2023-05-10T13:51:45.162Z,2.70
2023-05-10T13:55:14.519Z,2.80
2023-05-10T13:58:41.763Z,1.60
2023-05-10T14:02:14.653Z,3.20
2023-05-10T14:05:42.962Z,2.20
2023-05-10T14:09:10.032Z,3.20
2023-05-10T14:12:36.995Z,2.40
2023-05-10T14:16:03.830Z,3.00
2023-05-10T14:19:33.828Z,2.10
2023-05-10T14:23:01.732Z,2.60
2023-05-10T14:26:28.803Z,2.60
2023-05-10T14:29:55.844Z,2.20
2023-05-10T14:33:23.150Z,2.40
2023-05-10T14:36:50.005Z,2.10
2023-05-10T14:40:18.270Z,3.10
2023-05-10T14:43:46.299Z,2.40
2023-05-10T14:47:13.344Z,2.10
2023-05-10T14:50:44.607Z,2.00
2023-05-10T14:54:11.472Z,2.60
2023-05-10T14:57:39.487Z,2.20
2023-05-10T15:01:06.922Z,2.40
2023-05-10T15:04:34.382Z,2.90
2023-05-10T15:08:01.583Z,3.40
2023-05-10T15:11:28.849Z,3.30
2023-05-10T15:14:57.127Z,2.50
2023-05-10T15:18:27.570Z,2.40
2023-05-10T15:21:54.539Z,2.90
2023-05-10T15:25:22.202Z,2.60
2023-05-10T15:28:49.338Z,4.50
2023-05-10T15:32:17.300Z,3.70
2023-05-10T15:35:44.022Z,2.30
2023-05-10T15:39:11.032Z,2.40
2023-05-10T15:42:38.314Z,3.60
2023-05-10T15:46:07.344Z,2.80
2023-05-10T15:49:37.571Z,2.50
2023-05-10T15:53:04.396Z,2.30
2023-05-10T15:56:31.586Z,3.20
2023-05-10T15:59:58.768Z,2.90
2023-05-10T16:03:25.384Z,2.20
2023-05-10T16:06:52.648Z,2.30
2023-05-10T16:10:20.393Z,2.10
2023-05-10T16:13:47.767Z,2.10
2023-05-10T16:17:17.165Z,3.00
2023-05-10T16:20:44.370Z,4.90
2023-05-10T16:24:11.493Z,3.40
2023-05-10T16:27:38.461Z,2.90
2023-05-10T16:31:05.684Z,2.40
2023-05-10T16:34:32.330Z,2.70
2023-05-10T16:37:59.777Z,2.40
2023-05-10T16:41:26.743Z,3.10
2023-05-10T16:44:53.597Z,2.80
2023-05-10T16:48:22.595Z,3.00
2023-05-10T16:51:49.787Z,3.70
2023-05-10T16:55:16.723Z,2.40
2023-05-10T16:58:44.018Z,2.90
2023-05-10T17:02:14.584Z,3.40
2023-05-10T17:05:43.771Z,2.80
2023-05-10T17:09:10.802Z,2.50
2023-05-10T17:12:37.628Z,2.20
2023-05-10T17:16:05.367Z,2.40
2023-05-10T17:19:33.369Z,2.90
2023-05-10T17:23:03.508Z,2.40
2023-05-10T17:26:34.828Z,2.30
2023-05-10T17:30:02.455Z,2.30
2023-05-10T17:33:29.156Z,2.60
2023-05-10T17:36:57.634Z,2.50
2023-05-10T17:40:25.319Z,3.10
2023-05-10T17:43:52.147Z,2.50
2023-05-10T17:47:19.263Z,2.80
2023-05-10T17:50:46.835Z,2.10
2023-05-10T17:54:16.213Z,2.30
2023-05-10T17:57:43.792Z,2.20
2023-05-10T18:01:10.961Z,2.50
2023-05-10T18:04:40.999Z,2.70
2023-05-10T18:08:08.917Z,2.30
2023-05-10T18:11:41.869Z,2.40
2023-05-10T18:15:10.338Z,2.70
2023-05-10T18:18:37.405Z,2.30
2023-05-10T18:22:06.070Z,3.10
2023-05-10T18:25:34.533Z,3.00
2023-05-10T18:29:01.887Z,2.40
2023-05-10T18:32:31.646Z,2.50
2023-05-10T18:36:02.786Z,2.60
2023-05-10T18:39:30.614Z,2.20
2023-05-10T18:43:00.546Z,2.60
2023-05-10T18:46:32.314Z,2.40
2023-05-10T18:50:00.466Z,2.70
2023-05-10T18:53:28.363Z,2.60
2023-05-10T18:56:58.059Z,2.60
2023-05-10T19:00:26.954Z,2.70
2023-05-10T19:03:54.983Z,3.30
2023-05-10T19:07:22.446Z,3.00
2023-05-10T19:10:53.837Z,2.60
2023-05-10T19:14:23.176Z,2.90
2023-05-10T19:18:09.052Z,2.10
2023-05-10T19:21:39.390Z,2.90
2023-05-10T19:25:13.589Z,2.80
2023-05-10T19:32:15.187Z,2.70
2023-05-10T19:35:53.916Z,2.80
2023-05-10T19:39:28.070Z,2.80
2023-05-10T19:42:58.605Z,3.10
2023-05-10T19:46:27.630Z,3.10
2023-05-10T19:49:57.911Z,3.40
2023-05-10T19:53:27.537Z,3.60
2023-05-10T19:56:57.363Z,3.40
2023-05-10T20:00:27.999Z,3.00
2023-05-10T20:04:07.152Z,3.10
2023-05-10T20:07:37.382Z,3.80
2023-05-10T20:11:07.173Z,3.50
2023-05-10T20:14:35.110Z,3.30
2023-05-10T20:18:07.735Z,3.30
2023-05-10T20:21:36.323Z,3.00
2023-05-10T20:25:03.887Z,4.10
2023-05-10T20:28:32.234Z,2.90
2023-05-10T20:32:01.143Z,3.40
2023-05-10T20:35:28.545Z,2.70
2023-05-10T20:38:58.040Z,2.80
2023-05-10T20:42:28.232Z,3.50
2023-05-10T20:45:56.205Z,3.20
2023-05-10T20:49:24.994Z,3.00
2023-05-10T20:53:06.526Z,3.00
2023-05-10T20:56:36.132Z,3.20
2023-05-10T21:00:03.690Z,3.20
2023-05-10T21:03:31.546Z,2.50
2023-05-10T21:06:58.816Z,3.50
2023-05-10T21:10:28.577Z,3.10
2023-05-10T21:13:55.625Z,2.80
2023-05-10T21:17:23.257Z,2.90
2023-05-10T21:20:50.988Z,2.40
2023-05-10T21:24:17.838Z,3.30
2023-05-10T21:27:45.028Z,3.10
2023-05-10T21:31:12.738Z,3.00
2023-05-10T21:34:42.217Z,3.10
2023-05-10T21:38:09.368Z,2.80
2023-05-10T21:41:36.277Z,3.00
2023-05-10T21:45:03.594Z,2.90
2023-05-10T21:48:31.646Z,3.00
2023-05-10T21:51:59.597Z,2.40
2023-05-10T21:55:26.200Z,2.90
2023-05-10T21:58:53.300Z,2.90
2023-05-10T22:02:26.157Z,3.50
2023-05-10T22:05:53.355Z,3.50
2023-05-10T22:09:25.575Z,3.00
2023-05-10T22:12:53.383Z,2.90
2023-05-10T22:16:20.868Z,2.90
2023-05-10T22:19:48.284Z,3.30
2023-05-10T22:23:15.888Z,3.10
2023-05-10T22:26:43.561Z,3.40
2023-05-10T22:30:13.180Z,2.90
2023-05-10T22:33:47.699Z,3.40
2023-05-10T22:37:18.120Z,3.10
2023-05-10T22:40:46.521Z,2.90
2023-05-10T22:44:13.946Z,2.70
2023-05-10T22:47:40.912Z,2.90
2023-05-10T22:51:07.898Z,3.00
2023-05-10T22:54:36.258Z,3.50
2023-05-10T22:58:03.957Z,3.30
2023-05-10T23:01:32.283Z,3.20
2023-05-10T23:04:59.944Z,2.90
2023-05-10T23:08:28.518Z,2.90
2023-05-10T23:12:01.396Z,3.30
2023-05-10T23:15:30.030Z,2.90
2023-05-10T23:18:58.273Z,3.20
2023-05-10T23:22:25.548Z,3.10
2023-05-10T23:25:53.196Z,3.10
2023-05-10T23:29:19.733Z,3.70
2023-05-10T23:32:46.866Z,3.00
2023-05-10T23:36:14.479Z,3.20
2023-05-10T23:39:43.447Z,3.00
2023-05-10T23:43:11.492Z,3.40
2023-05-10T23:46:39.160Z,3.00
2023-05-10T23:50:09.381Z,3.20
2023-05-10T23:53:37.989Z,3.20
2023-05-10T23:57:07.448Z,2.90
